sensor_id;sensor_type;location;lat;lon;timestamp;P1;durP1;ratioP1;P2;durP2;ratioP2
28577;SDS011;15769;52.248;15.818;2023-02-28T00:00:22;74.72;;;30.33;;
28577;SDS011;15769;52.248;15.818;2023-02-28T00:05:45;68.32;;;26.38;;
28577;SDS011;15769;52.248;15.818;2023-02-28T00:10:48;72.00;;;21.63;;
28577;SDS011;15769;52.248;15.818;2023-02-28T00:15:58;70.93;;;22.00;;
28577;SDS011;15769;52.248;15.818;2023-02-28T00:21:08;84.50;;;31.23;;
28577;SDS011;15769;52.248;15.818;2023-02-28T00:26:15;84.10;;;29.15;;
28577;SDS011;15769;52.248;15.818;2023-02-28T00:31:20;88.50;;;29.10;;
28577;SDS011;15769;52.248;15.818;2023-02-28T00:36:22;81.72;;;29.65;;
28577;SDS011;15769;52.248;15.818;2023-02-28T00:41:25;71.13;;;26.98;;
28577;SDS011;15769;52.248;15.818;2023-02-28T00:46:30;44.93;;;16.43;;
28577;SDS011;15769;52.248;15.818;2023-02-28T00:51:34;49.60;;;22.02;;
28577;SDS011;15769;52.248;15.818;2023-02-28T00:56:36;59.72;;;25.48;;
28577;SDS011;15769;52.248;15.818;2023-02-28T01:01:43;139.05;;;42.35;;
28577;SDS011;15769;52.248;15.818;2023-02-28T01:06:47;162.85;;;44.53;;
28577;SDS011;15769;52.248;15.818;2023-02-28T01:11:52;109.78;;;31.52;;
28577;SDS011;15769;52.248;15.818;2023-02-28T01:16:54;110.25;;;35.75;;
28577;SDS011;15769;52.248;15.818;2023-02-28T01:27:23;139.05;;;42.13;;
28577;SDS011;15769;52.248;15.818;2023-02-28T01:32:32;110.57;;;36.00;;
28577;SDS011;15769;52.248;15.818;2023-02-28T01:37:35;114.13;;;35.80;;
28577;SDS011;15769;52.248;15.818;2023-02-28T01:42:40;119.15;;;36.30;;
28577;SDS011;15769;52.248;15.818;2023-02-28T01:47:42;83.47;;;28.50;;
28577;SDS011;15769;52.248;15.818;2023-02-28T01:52:46;47.67;;;19.23;;
28577;SDS011;15769;52.248;15.818;2023-02-28T02:02:57;42.17;;;14.98;;
28577;SDS011;15769;52.248;15.818;2023-02-28T02:08:03;27.58;;;13.77;;
28577;SDS011;15769;52.248;15.818;2023-02-28T02:13:34;29.55;;;12.77;;
28577;SDS011;15769;52.248;15.818;2023-02-28T02:24:36;33.22;;;14.68;;
28577;SDS011;15769;52.248;15.818;2023-02-28T02:46:06;34.23;;;14.20;;
28577;SDS011;15769;52.248;15.818;2023-02-28T02:51:14;31.55;;;14.15;;
28577;SDS011;15769;52.248;15.818;2023-02-28T02:56:21;32.72;;;14.63;;
28577;SDS011;15769;52.248;15.818;2023-02-28T03:01:27;32.22;;;13.52;;
28577;SDS011;15769;52.248;15.818;2023-02-28T03:06:33;38.38;;;15.40;;
28577;SDS011;15769;52.248;15.818;2023-02-28T03:33:03;72.50;;;22.48;;
28577;SDS011;15769;52.248;15.818;2023-02-28T03:43:32;49.35;;;19.27;;
28577;SDS011;15769;52.248;15.818;2023-02-28T03:48:44;44.78;;;17.63;;
28577;SDS011;15769;52.248;15.818;2023-02-28T03:59:17;62.70;;;22.80;;
28577;SDS011;15769;52.248;15.818;2023-02-28T04:04:24;49.83;;;20.23;;
28577;SDS011;15769;52.248;15.818;2023-02-28T04:09:30;54.47;;;20.92;;
28577;SDS011;15769;52.248;15.818;2023-02-28T04:14:33;57.33;;;20.75;;
28577;SDS011;15769;52.248;15.818;2023-02-28T04:19:39;77.90;;;25.00;;
28577;SDS011;15769;52.248;15.818;2023-02-28T04:24:42;76.18;;;27.27;;
28577;SDS011;15769;52.248;15.818;2023-02-28T04:29:54;78.68;;;27.60;;
28577;SDS011;15769;52.248;15.818;2023-02-28T04:34:56;67.35;;;25.60;;
28577;SDS011;15769;52.248;15.818;2023-02-28T04:40:02;65.80;;;25.38;;
28577;SDS011;15769;52.248;15.818;2023-02-28T04:45:05;67.47;;;26.95;;
28577;SDS011;15769;52.248;15.818;2023-02-28T04:50:08;54.42;;;23.50;;
28577;SDS011;15769;52.248;15.818;2023-02-28T04:55:17;61.15;;;25.63;;
28577;SDS011;15769;52.248;15.818;2023-02-28T05:00:24;53.25;;;24.25;;
28577;SDS011;15769;52.248;15.818;2023-02-28T05:05:27;60.28;;;24.48;;
28577;SDS011;15769;52.248;15.818;2023-02-28T05:10:30;56.15;;;25.48;;
28577;SDS011;15769;52.248;15.818;2023-02-28T05:15:33;57.13;;;25.60;;
28577;SDS011;15769;52.248;15.818;2023-02-28T05:20:36;54.45;;;24.00;;
28577;SDS011;15769;52.248;15.818;2023-02-28T05:25:41;48.25;;;21.90;;
28577;SDS011;15769;52.248;15.818;2023-02-28T05:30:43;38.60;;;20.07;;
28577;SDS011;15769;52.248;15.818;2023-02-28T05:35:46;46.35;;;19.95;;
28577;SDS011;15769;52.248;15.818;2023-02-28T05:40:56;51.58;;;21.55;;
28577;SDS011;15769;52.248;15.818;2023-02-28T05:45:59;63.08;;;25.27;;
28577;SDS011;15769;52.248;15.818;2023-02-28T05:51:05;72.70;;;27.75;;
28577;SDS011;15769;52.248;15.818;2023-02-28T05:56:09;53.13;;;22.95;;
28577;SDS011;15769;52.248;15.818;2023-02-28T06:01:19;37.65;;;16.85;;
28577;SDS011;15769;52.248;15.818;2023-02-28T06:06:26;58.75;;;25.85;;
28577;SDS011;15769;52.248;15.818;2023-02-28T06:11:29;50.13;;;20.35;;
28577;SDS011;15769;52.248;15.818;2023-02-28T06:16:36;69.53;;;25.85;;
28577;SDS011;15769;52.248;15.818;2023-02-28T06:21:38;59.58;;;25.25;;
28577;SDS011;15769;52.248;15.818;2023-02-28T06:26:41;71.03;;;30.47;;
28577;SDS011;15769;52.248;15.818;2023-02-28T06:31:45;72.38;;;29.77;;
28577;SDS011;15769;52.248;15.818;2023-02-28T06:36:49;104.72;;;36.03;;
28577;SDS011;15769;52.248;15.818;2023-02-28T06:41:54;113.55;;;38.45;;
28577;SDS011;15769;52.248;15.818;2023-02-28T06:52:04;56.15;;;24.55;;
28577;SDS011;15769;52.248;15.818;2023-02-28T06:57:07;69.03;;;25.67;;
28577;SDS011;15769;52.248;15.818;2023-02-28T07:02:10;62.80;;;25.03;;
28577;SDS011;15769;52.248;15.818;2023-02-28T07:07:12;65.13;;;29.50;;
28577;SDS011;15769;52.248;15.818;2023-02-28T07:12:21;66.20;;;30.33;;
28577;SDS011;15769;52.248;15.818;2023-02-28T07:17:24;84.78;;;35.20;;
28577;SDS011;15769;52.248;15.818;2023-02-28T07:22:26;71.25;;;33.25;;
28577;SDS011;15769;52.248;15.818;2023-02-28T07:27:30;126.90;;;34.58;;
28577;SDS011;15769;52.248;15.818;2023-02-28T07:32:33;82.50;;;24.77;;
28577;SDS011;15769;52.248;15.818;2023-02-28T07:37:41;60.45;;;23.30;;
28577;SDS011;15769;52.248;15.818;2023-02-28T07:42:44;73.75;;;26.17;;
28577;SDS011;15769;52.248;15.818;2023-02-28T07:47:51;67.38;;;23.52;;
28577;SDS011;15769;52.248;15.818;2023-02-28T07:53:00;84.03;;;25.95;;
28577;SDS011;15769;52.248;15.818;2023-02-28T07:58:02;84.28;;;26.40;;
28577;SDS011;15769;52.248;15.818;2023-02-28T08:03:13;50.33;;;21.33;;
28577;SDS011;15769;52.248;15.818;2023-02-28T08:08:15;46.90;;;19.77;;
28577;SDS011;15769;52.248;15.818;2023-02-28T08:13:19;41.72;;;20.55;;
28577;SDS011;15769;52.248;15.818;2023-02-28T08:23:29;40.28;;;21.60;;
28577;SDS011;15769;52.248;15.818;2023-02-28T08:28:39;32.80;;;19.63;;
28577;SDS011;15769;52.248;15.818;2023-02-28T08:33:42;134.13;;;76.97;;
28577;SDS011;15769;52.248;15.818;2023-02-28T08:38:46;47.83;;;27.42;;
28577;SDS011;15769;52.248;15.818;2023-02-28T08:43:50;70.38;;;31.00;;
28577;SDS011;15769;52.248;15.818;2023-02-28T08:48:55;29.77;;;15.47;;
28577;SDS011;15769;52.248;15.818;2023-02-28T08:54:02;34.13;;;16.05;;
28577;SDS011;15769;52.248;15.818;2023-02-28T08:59:04;95.30;;;38.87;;
28577;SDS011;15769;52.248;15.818;2023-02-28T09:04:08;23.58;;;12.38;;
28577;SDS011;15769;52.248;15.818;2023-02-28T09:09:12;20.73;;;10.95;;
28577;SDS011;15769;52.248;15.818;2023-02-28T09:14:18;13.73;;;8.82;;
28577;SDS011;15769;52.248;15.818;2023-02-28T09:19:24;8.38;;;5.68;;
28577;SDS011;15769;52.248;15.818;2023-02-28T09:24:30;12.30;;;5.90;;
28577;SDS011;15769;52.248;15.818;2023-02-28T09:29:36;16.77;;;8.55;;
28577;SDS011;15769;52.248;15.818;2023-02-28T09:34:39;8.45;;;5.90;;
28577;SDS011;15769;52.248;15.818;2023-02-28T09:39:43;13.30;;;7.60;;
28577;SDS011;15769;52.248;15.818;2023-02-28T09:44:48;11.40;;;6.85;;
28577;SDS011;15769;52.248;15.818;2023-02-28T09:50:03;14.02;;;7.75;;
28577;SDS011;15769;52.248;15.818;2023-02-28T10:00:34;12.48;;;7.25;;
28577;SDS011;15769;52.248;15.818;2023-02-28T10:05:43;56.00;;;30.45;;
28577;SDS011;15769;52.248;15.818;2023-02-28T10:10:57;186.35;;;101.78;;
28577;SDS011;15769;52.248;15.818;2023-02-28T10:16:05;17.25;;;10.48;;
28577;SDS011;15769;52.248;15.818;2023-02-28T10:21:21;23.13;;;10.82;;
28577;SDS011;15769;52.248;15.818;2023-02-28T10:26:36;34.43;;;19.33;;
28577;SDS011;15769;52.248;15.818;2023-02-28T10:31:41;9.48;;;5.88;;
28577;SDS011;15769;52.248;15.818;2023-02-28T10:36:46;10.23;;;5.35;;
28577;SDS011;15769;52.248;15.818;2023-02-28T10:41:51;8.35;;;4.68;;
28577;SDS011;15769;52.248;15.818;2023-02-28T10:46:55;10.38;;;5.47;;
28577;SDS011;15769;52.248;15.818;2023-02-28T10:51:59;11.93;;;7.05;;
28577;SDS011;15769;52.248;15.818;2023-02-28T10:57:22;15.38;;;6.90;;
28577;SDS011;15769;52.248;15.818;2023-02-28T11:02:34;9.23;;;5.40;;
28577;SDS011;15769;52.248;15.818;2023-02-28T11:07:38;29.70;;;10.40;;
28577;SDS011;15769;52.248;15.818;2023-02-28T11:12:55;9.80;;;5.85;;
28577;SDS011;15769;52.248;15.818;2023-02-28T11:18:15;8.00;;;5.22;;
28577;SDS011;15769;52.248;15.818;2023-02-28T11:28:46;13.43;;;7.03;;
28577;SDS011;15769;52.248;15.818;2023-02-28T11:33:52;8.90;;;5.60;;
28577;SDS011;15769;52.248;15.818;2023-02-28T11:39:04;10.82;;;5.05;;
28577;SDS011;15769;52.248;15.818;2023-02-28T12:06:08;9.85;;;5.30;;
28577;SDS011;15769;52.248;15.818;2023-02-28T12:22:20;26.75;;;15.18;;
28577;SDS011;15769;52.248;15.818;2023-02-28T12:27:25;10.10;;;5.45;;
28577;SDS011;15769;52.248;15.818;2023-02-28T12:32:32;11.52;;;5.32;;
28577;SDS011;15769;52.248;15.818;2023-02-28T12:37:41;9.93;;;5.70;;
28577;SDS011;15769;52.248;15.818;2023-02-28T12:43:02;8.85;;;5.80;;
28577;SDS011;15769;52.248;15.818;2023-02-28T12:48:37;15.00;;;6.72;;
28577;SDS011;15769;52.248;15.818;2023-02-28T12:58:57;10.52;;;5.50;;
28577;SDS011;15769;52.248;15.818;2023-02-28T13:04:25;15.55;;;8.60;;
28577;SDS011;15769;52.248;15.818;2023-02-28T13:09:51;11.13;;;6.32;;
28577;SDS011;15769;52.248;15.818;2023-02-28T13:36:19;10.90;;;6.78;;
28577;SDS011;15769;52.248;15.818;2023-02-28T13:52:02;24.80;;;11.07;;
28577;SDS011;15769;52.248;15.818;2023-02-28T14:03:07;16.13;;;7.38;;
28577;SDS011;15769;52.248;15.818;2023-02-28T14:08:19;12.63;;;6.60;;
28577;SDS011;15769;52.248;15.818;2023-02-28T14:19:09;11.18;;;6.13;;
28577;SDS011;15769;52.248;15.818;2023-02-28T14:40:51;14.70;;;7.15;;
28577;SDS011;15769;52.248;15.818;2023-02-28T14:45:56;8.77;;;5.43;;
28577;SDS011;15769;52.248;15.818;2023-02-28T14:51:01;36.28;;;14.32;;
28577;SDS011;15769;52.248;15.818;2023-02-28T14:56:05;31.80;;;13.90;;
28577;SDS011;15769;52.248;15.818;2023-02-28T15:01:11;20.55;;;9.02;;
28577;SDS011;15769;52.248;15.818;2023-02-28T15:06:14;14.90;;;7.68;;
28577;SDS011;15769;52.248;15.818;2023-02-28T15:11:20;23.55;;;10.45;;
28577;SDS011;15769;52.248;15.818;2023-02-28T15:21:32;12.75;;;7.95;;
28577;SDS011;15769;52.248;15.818;2023-02-28T15:26:39;13.18;;;7.43;;
28577;SDS011;15769;52.248;15.818;2023-02-28T15:31:56;16.15;;;8.27;;
28577;SDS011;15769;52.248;15.818;2023-02-28T15:42:35;38.08;;;14.10;;
28577;SDS011;15769;52.248;15.818;2023-02-28T15:47:38;35.20;;;14.60;;
28577;SDS011;15769;52.248;15.818;2023-02-28T15:52:45;46.20;;;19.17;;
28577;SDS011;15769;52.248;15.818;2023-02-28T15:57:53;50.00;;;17.48;;
28577;SDS011;15769;52.248;15.818;2023-02-28T16:02:57;23.10;;;10.02;;
28577;SDS011;15769;52.248;15.818;2023-02-28T16:08:10;13.82;;;7.50;;
28577;SDS011;15769;52.248;15.818;2023-02-28T16:13:22;16.65;;;8.52;;
28577;SDS011;15769;52.248;15.818;2023-02-28T16:18:24;48.85;;;21.95;;
28577;SDS011;15769;52.248;15.818;2023-02-28T16:23:27;70.63;;;30.77;;
28577;SDS011;15769;52.248;15.818;2023-02-28T16:28:30;58.83;;;23.70;;
28577;SDS011;15769;52.248;15.818;2023-02-28T16:33:35;54.33;;;23.42;;
28577;SDS011;15769;52.248;15.818;2023-02-28T16:38:38;83.70;;;40.13;;
28577;SDS011;15769;52.248;15.818;2023-02-28T16:43:43;164.00;;;76.72;;
28577;SDS011;15769;52.248;15.818;2023-02-28T16:48:49;250.35;;;113.53;;
28577;SDS011;15769;52.248;15.818;2023-02-28T16:58:59;267.17;;;87.57;;
28577;SDS011;15769;52.248;15.818;2023-02-28T17:04:05;343.60;;;99.18;;
28577;SDS011;15769;52.248;15.818;2023-02-28T17:09:09;343.70;;;109.60;;
28577;SDS011;15769;52.248;15.818;2023-02-28T17:14:18;196.85;;;74.65;;
28577;SDS011;15769;52.248;15.818;2023-02-28T17:19:20;460.50;;;172.30;;
28577;SDS011;15769;52.248;15.818;2023-02-28T17:24:23;339.67;;;137.60;;
28577;SDS011;15769;52.248;15.818;2023-02-28T17:29:32;191.77;;;80.22;;
28577;SDS011;15769;52.248;15.818;2023-02-28T17:34:35;139.85;;;59.03;;
28577;SDS011;15769;52.248;15.818;2023-02-28T17:39:37;169.80;;;86.18;;
28577;SDS011;15769;52.248;15.818;2023-02-28T17:44:40;89.50;;;44.67;;
28577;SDS011;15769;52.248;15.818;2023-02-28T17:49:42;84.85;;;40.00;;
28577;SDS011;15769;52.248;15.818;2023-02-28T17:54:46;71.35;;;32.45;;
28577;SDS011;15769;52.248;15.818;2023-02-28T17:59:50;108.35;;;46.10;;
28577;SDS011;15769;52.248;15.818;2023-02-28T18:04:54;113.28;;;47.20;;
28577;SDS011;15769;52.248;15.818;2023-02-28T18:09:59;102.85;;;47.92;;
28577;SDS011;15769;52.248;15.818;2023-02-28T18:15:14;88.10;;;41.78;;
28577;SDS011;15769;52.248;15.818;2023-02-28T18:20:17;112.68;;;51.80;;
28577;SDS011;15769;52.248;15.818;2023-02-28T18:25:27;118.72;;;56.15;;
28577;SDS011;15769;52.248;15.818;2023-02-28T18:30:31;136.10;;;60.90;;
28577;SDS011;15769;52.248;15.818;2023-02-28T18:35:36;178.50;;;79.38;;
28577;SDS011;15769;52.248;15.818;2023-02-28T18:40:51;286.42;;;121.38;;
28577;SDS011;15769;52.248;15.818;2023-02-28T18:46:10;446.80;;;161.25;;
28577;SDS011;15769;52.248;15.818;2023-02-28T18:51:17;374.33;;;150.68;;
28577;SDS011;15769;52.248;15.818;2023-02-28T18:56:21;336.02;;;135.63;;
28577;SDS011;15769;52.248;15.818;2023-02-28T19:01:30;287.20;;;119.63;;
28577;SDS011;15769;52.248;15.818;2023-02-28T19:06:57;317.38;;;127.43;;
28577;SDS011;15769;52.248;15.818;2023-02-28T19:12:02;384.05;;;140.65;;
28577;SDS011;15769;52.248;15.818;2023-02-28T19:17:08;346.88;;;130.65;;
28577;SDS011;15769;52.248;15.818;2023-02-28T19:22:41;396.20;;;146.10;;
28577;SDS011;15769;52.248;15.818;2023-02-28T19:28:04;356.55;;;135.98;;
28577;SDS011;15769;52.248;15.818;2023-02-28T19:33:07;318.65;;;127.00;;
28577;SDS011;15769;52.248;15.818;2023-02-28T19:38:16;308.52;;;118.20;;
28577;SDS011;15769;52.248;15.818;2023-02-28T19:43:22;366.55;;;121.93;;
28577;SDS011;15769;52.248;15.818;2023-02-28T19:48:24;349.52;;;118.28;;
28577;SDS011;15769;52.248;15.818;2023-02-28T19:53:32;311.95;;;108.80;;
28577;SDS011;15769;52.248;15.818;2023-02-28T19:58:47;291.35;;;104.63;;
28577;SDS011;15769;52.248;15.818;2023-02-28T20:03:51;279.25;;;110.72;;
28577;SDS011;15769;52.248;15.818;2023-02-28T20:13:57;176.30;;;73.90;;
28577;SDS011;15769;52.248;15.818;2023-02-28T20:19:01;230.27;;;95.15;;
28577;SDS011;15769;52.248;15.818;2023-02-28T20:24:05;277.02;;;103.18;;
28577;SDS011;15769;52.248;15.818;2023-02-28T20:29:08;270.38;;;103.10;;
28577;SDS011;15769;52.248;15.818;2023-02-28T20:34:11;348.77;;;133.80;;
28577;SDS011;15769;52.248;15.818;2023-02-28T20:39:14;270.80;;;100.43;;
28577;SDS011;15769;52.248;15.818;2023-02-28T20:44:23;255.77;;;96.30;;
28577;SDS011;15769;52.248;15.818;2023-02-28T20:49:29;256.33;;;98.70;;
28577;SDS011;15769;52.248;15.818;2023-02-28T20:54:32;206.00;;;79.32;;
28577;SDS011;15769;52.248;15.818;2023-02-28T20:59:37;230.88;;;81.35;;
28577;SDS011;15769;52.248;15.818;2023-02-28T21:04:41;206.77;;;77.13;;
28577;SDS011;15769;52.248;15.818;2023-02-28T21:09:44;198.47;;;74.70;;
28577;SDS011;15769;52.248;15.818;2023-02-28T21:14:46;202.82;;;79.32;;
28577;SDS011;15769;52.248;15.818;2023-02-28T21:19:51;179.48;;;70.13;;
28577;SDS011;15769;52.248;15.818;2023-02-28T21:24:53;240.27;;;73.93;;
28577;SDS011;15769;52.248;15.818;2023-02-28T21:29:56;207.38;;;61.55;;
28577;SDS011;15769;52.248;15.818;2023-02-28T21:34:59;220.65;;;69.88;;
28577;SDS011;15769;52.248;15.818;2023-02-28T21:40:05;306.50;;;91.38;;
28577;SDS011;15769;52.248;15.818;2023-02-28T21:45:11;241.90;;;73.90;;
28577;SDS011;15769;52.248;15.818;2023-02-28T21:50:14;214.15;;;69.00;;
28577;SDS011;15769;52.248;15.818;2023-02-28T21:55:16;194.80;;;68.03;;
28577;SDS011;15769;52.248;15.818;2023-02-28T22:00:19;268.67;;;90.60;;
28577;SDS011;15769;52.248;15.818;2023-02-28T22:05:22;273.80;;;87.60;;
28577;SDS011;15769;52.248;15.818;2023-02-28T22:10:25;275.00;;;90.82;;
28577;SDS011;15769;52.248;15.818;2023-02-28T22:15:34;272.37;;;86.33;;
28577;SDS011;15769;52.248;15.818;2023-02-28T22:20:40;226.75;;;77.75;;
28577;SDS011;15769;52.248;15.818;2023-02-28T22:25:43;229.97;;;81.93;;
28577;SDS011;15769;52.248;15.818;2023-02-28T22:30:46;183.77;;;68.27;;
28577;SDS011;15769;52.248;15.818;2023-02-28T22:40:54;150.27;;;53.28;;
28577;SDS011;15769;52.248;15.818;2023-02-28T22:46:01;198.80;;;69.30;;
28577;SDS011;15769;52.248;15.818;2023-02-28T22:51:11;229.17;;;76.97;;
28577;SDS011;15769;52.248;15.818;2023-02-28T22:56:17;219.43;;;73.18;;
28577;SDS011;15769;52.248;15.818;2023-02-28T23:01:21;199.25;;;71.25;;
28577;SDS011;15769;52.248;15.818;2023-02-28T23:06:26;185.98;;;72.22;;
28577;SDS011;15769;52.248;15.818;2023-02-28T23:11:37;181.23;;;70.85;;
28577;SDS011;15769;52.248;15.818;2023-02-28T23:16:45;195.60;;;74.97;;
28577;SDS011;15769;52.248;15.818;2023-02-28T23:21:52;210.55;;;77.32;;
28577;SDS011;15769;52.248;15.818;2023-02-28T23:26:56;159.60;;;60.13;;
28577;SDS011;15769;52.248;15.818;2023-02-28T23:32:00;212.18;;;79.50;;
28577;SDS011;15769;52.248;15.818;2023-02-28T23:37:03;149.23;;;54.22;;
28577;SDS011;15769;52.248;15.818;2023-02-28T23:42:06;176.40;;;68.05;;
28577;SDS011;15769;52.248;15.818;2023-02-28T23:47:09;144.50;;;53.13;;
28577;SDS011;15769;52.248;15.818;2023-02-28T23:52:14;192.15;;;72.80;;
28577;SDS011;15769;52.248;15.818;2023-02-28T23:57:16;192.07;;;69.70;;
